Pagrindinis puslapis
METAR-TAF:

METAR-TAF

Oro uostai :

Bandžarmasinas, Indonezija

platuma: 03-26-32S, ilguma: 114-45-45E, Aukštis: 20 m

Dabartinis oras

Ataskaita buvo paskelbta 4 valandos ir 54 minutes, ne 03:30 UTC
Vėjas 7 kt iš Šiaurės/Šiaurės Rytų
Temperatūra 32°C
Drėgmė 67%
Slėgis 1010 hPa
Matomumas 10 km arba daugiau
Mažai debesys ne aukštis 2600 ft

METAR: WAOO 230330Z 02007KT 9999 FEW026 32/25 Q1010 NOSIG

Laikas: 15:24 (08:24 UTC)

Prognozė

Ataskaita buvo paskelbta 3 valandos ir 24 minutes, ne 05:00 UTC
Prognozė galioja nuo 23 metu 06 UTC su 24 metu 06 UTC
Vėjas 7 kt iš Vakarų/Pietvakarių
Matomumas 10 km arba daugiau
Išsisklaidę debesys ne aukštis 1800 ft
Laikinai
nuo 23 metu 08 UTC su 23 metu 12 UTC
Matomumas: 6000 m
lietus

TAF: WAOO 230500Z 2306/2406 24007KT 9999 SCT018 TEMPO 2308/2312 6000 RA

Orai ataskaitas ir orų prognozės (METAR, TAF).

turimą stotys yra geltonos ir raudonos taškus žemėlapyje.

Perkelti pele per norėdami pamatyti stoties vardą.

Tada spustelėkite, norėdami matyti oro stebėjimo ir prognozės.

Norėdami pakeisti žemėlapį: spustelėkite ant žalios mygtukų su juodo kryžiaus žemyn,; žalią mygtuką su brūkšneliu, jei norite nutolinti; arba žalių rodyklių gretimoms žemėlapius.


METAR-TAF: